^^
Datos históricos de la estación: Murcia-Puente Tocinos
Diario Informe para Noviembre 1, 2019 Unidades:  Ingés    Métrico   Ambas
Diario Semanal Mensual Anual
  Máxima: Mínima: Promedio:
Temperatura: 82.2 °F 64.2 °F 73 °F
Punto de rocio: 61.3 °F 55.9 °F 57.7 °F
Humedad: 76% 42% 60%
Velocidad viento: 8.5mph 0mph 4.5mph
Racha viento: 17.5mph - -
Viento- - SO
Presión: 30.1 in 29.9 in -
Precipitación: 0 in    
 
 
Tabla de datos para Noviembre 1, 2019
Hora Temperatura Punto de rocio Presión Viento Velocidad viento Racha viento Humedad Intensidad lluvia(por hora) Nubes
00:04 70 °F 56.1 °F 30.1 in SSO 3.5 mph 5 mph 61.4% 0 in
00:09 70 °F 55.9 °F 30.1 in SO 3.1 mph 4.6 mph 61% 0 in
00:14 70 °F 55.9 °F 30.1 in SO 2.5 mph 6 mph 61% 0 in
00:19 70 °F 55.9 °F 30.1 in SO 2.4 mph 6.9 mph 61% 0 in
00:24 69.8 °F 56.1 °F 30.1 in SO 3.9 mph 7 mph 62% 0 in
00:29 69.4 °F 55.9 °F 30.1 in SO 4.3 mph 8.7 mph 62.2% 0 in
00:34 69.4 °F 56.3 °F 30.1 in SSO 5 mph 9.2 mph 63% 0 in
00:39 69.4 °F 56.3 °F 30.1 in SSO 5.2 mph 9 mph 63% 0 in
00:44 69.3 °F 56.1 °F 30.1 in SO 5.3 mph 8 mph 63% 0 in
00:49 69.3 °F 56.1 °F 30.1 in OSO 5.4 mph 6 mph 63.2% 0 in
00:54 69.1 °F 56.3 °F 30.1 in ONO 3.1 mph 4 mph 64% 0 in
00:59 68.7 °F 56.1 °F 30.1 in NO 2.4 mph 3.1 mph 64.1% 0 in
01:04 68.5 °F 56.3 °F 30.1 in Sur 1.9 mph 5.2 mph 65.2% 0 in
01:09 68.2 °F 56.7 °F 30.1 in SSE 1.8 mph 8.5 mph 66.6% 0 in
01:14 67.6 °F 56.7 °F 30.1 in SSE 4 mph 9 mph 68.2% 0 in
01:19 67.3 °F 56.8 °F 30.1 in SSE 4.7 mph 7.4 mph 69.4% 0 in
01:24 66.9 °F 56.8 °F 30.1 in SSE 5.1 mph 8.1 mph 70.2% 0 in
01:29 66.7 °F 57 °F 30.1 in Sur 5.2 mph 8.1 mph 71% 0 in
01:34 66.6 °F 57 °F 30.1 in Sur 5.2 mph 8.5 mph 71% 0 in
01:39 66.7 °F 56.8 °F 30.1 in Sur 5.2 mph 9 mph 70.8% 0 in
01:44 66.7 °F 56.7 °F 30.1 in SSO 5.3 mph 8.1 mph 70% 0 in
01:49 66.9 °F 56.5 °F 30.1 in SSO 5.4 mph 8 mph 69.1% 0 in
01:54 67.1 °F 56.5 °F 30.1 in SSO 4.8 mph 7 mph 68.8% 0 in
01:59 67.3 °F 56.5 °F 30.1 in SSO 4.7 mph 6 mph 68% 0 in
02:04 67.3 °F 56.5 °F 30.1 in SSO 3.3 mph 5 mph 68% 0 in
02:09 67.3 °F 56.5 °F 30.1 in SSO 2.9 mph 3 mph 68% 0 in
02:14 67.3 °F 56.5 °F 30.1 in SSO 1.7 mph 3 mph 68.4% 0 in
02:19 66.9 °F 56.5 °F 30.1 in SSO 1.4 mph 3 mph 69% 0 in
02:24 66.7 °F 56.7 °F 30.1 in SSO 1.4 mph 2.4 mph 69.9% 0 in
02:29 66.6 °F 56.5 °F 30.1 in SSO 1.4 mph 3.6 mph 70% 0 in
02:34 66.6 °F 56.5 °F 30.1 in SSO 1.7 mph 5.2 mph 70% 0 in
02:39 66.6 °F 56.5 °F 30.1 in SSO 1.8 mph 5 mph 70% 0 in
02:44 66.6 °F 56.5 °F 30.1 in SSO 2.8 mph 5 mph 70% 0 in
02:49 66.6 °F 56.5 °F 30.1 in SSO 3.1 mph 5 mph 70% 0 in
02:54 66.6 °F 56.5 °F 30.1 in SSO 3.1 mph 5.8 mph 70% 0 in
02:59 66.6 °F 56.5 °F 30.1 in SSO 3.1 mph 6 mph 70% 0 in
03:04 66.7 °F 56.3 °F 30.1 in SO 4 mph 6 mph 69.2% 0 in
03:09 66.9 °F 56.3 °F 30.1 in SSO 4.3 mph 6 mph 69% 0 in
03:14 66.7 °F 56.3 °F 30.1 in SSO 4.1 mph 6.2 mph 69% 0 in
03:19 66.7 °F 56.1 °F 30.1 in SSO 4 mph 6.9 mph 69% 0 in
03:24 66.7 °F 56.1 °F 30.1 in SSO 4.2 mph 7 mph 69% 0 in
03:29 66.7 °F 56.1 °F 30.1 in SSO 4.3 mph 7 mph 69% 0 in
03:34 66.7 °F 56.1 °F 30.1 in SSO 4.6 mph 7 mph 69% 0 in
03:39 66.7 °F 56.1 °F 30.1 in SSO 4.7 mph 7 mph 69% 0 in
03:44 66.7 °F 56.1 °F 30.1 in OSO 3.9 mph 5.2 mph 69% 0 in
03:49 66.7 °F 56.1 °F 30.1 in Oeste 3.6 mph 5 mph 69% 0 in
03:54 66.6 °F 56.1 °F 30.1 in ONO 2.4 mph 4 mph 69.1% 0 in
03:59 66.6 °F 56.3 °F 30.1 in ONO 2 mph 2.4 mph 70% 0 in
04:04 66 °F 56.3 °F 30.1 in NNO 1.6 mph 5.2 mph 70.5% 0 in
04:09 65.7 °F 56.3 °F 30.1 in ESE 1.4 mph 5 mph 71.8% 0 in
04:14 65.1 °F 56.3 °F 30.1 in ESE 2.2 mph 5 mph 73.3% 0 in
04:19 64.8 °F 56.3 °F 30.1 in ESE 2.4 mph 3.5 mph 74% 0 in
04:24 64.6 °F 56.3 °F 30.1 in ESE 1.6 mph 4.6 mph 74.5% 0 in
04:29 64.6 °F 56.5 °F 30.1 in SE 1.4 mph 5.2 mph 75% 0 in
04:34 64.6 °F 56.5 °F 30.1 in NE 2.2 mph 5 mph 75% 0 in
04:39 64.2 °F 56.3 °F 30.1 in NE 2.4 mph 5 mph 75.5% 0 in
04:44 64.2 °F 56.5 °F 30.1 in NE 1.6 mph 4.7 mph 76% 0 in
04:49 64.4 °F 56.7 °F 30.1 in ONO 1.4 mph 5.8 mph 75.9% 0 in
04:54 64.2 °F 56.3 °F 30.1 in NO 2.5 mph 6 mph 75.7% 0 in
04:59 64.2 °F 56.5 °F 30.1 in ONO 2.9 mph 3.6 mph 76% 0 in
05:04 64.2 °F 56.5 °F 30.1 in Oeste 2.2 mph 4 mph 76% 0 in
05:09 64.4 °F 56.7 °F 30.1 in OSO 2 mph 4.6 mph 76% 0 in
05:14 64.8 °F 56.5 °F 30.1 in SO 2 mph 5.2 mph 75% 0 in
05:19 64.9 °F 56.5 °F 30.1 in SO 2 mph 5.2 mph 74% 0 in
05:24 65.1 °F 56.3 °F 30.1 in SO 2.9 mph 5.8 mph 73.1% 0 in
05:29 65.3 °F 56.5 °F 30.1 in SO 3.1 mph 6 mph 73% 0 in
05:34 65.3 °F 56.5 °F 30.1 in SO 3.1 mph 6 mph 73% 0 in
05:39 65.3 °F 56.5 °F 30.1 in OSO 3.1 mph 6 mph 73% 0 in
05:44 65.3 °F 56.3 °F 30.1 in Oeste 3.1 mph 5 mph 73% 0 in
05:49 65.1 °F 56.1 °F 30.1 in Oeste 3.1 mph 3 mph 73% 0 in
05:54 65.1 °F 56.1 °F 30.1 in Oeste 2.1 mph 3 mph 73% 0 in
05:59 65.1 °F 56.1 °F 30.1 in Oeste 1.8 mph 3.1 mph 73% 0 in
06:04 65.1 °F 56.1 °F 30.1 in Oeste 0.4 mph 4.6 mph 73% 0 in
06:09 65.1 °F 56.1 °F 30.1 in Calm   5 mph 73% 0 in
06:14 65.3 °F 56.3 °F 30.1 in SO 2.4 mph 5 mph 72.5% 0 in
06:19 65.7 °F 56.3 °F 30.1 in OSO 3.1 mph 5 mph 72% 0 in
06:24 65.7 °F 56.1 °F 30.1 in SO 2.9 mph 5.8 mph 71.3% 0 in
06:29 65.8 °F 56.3 °F 30.1 in SO 2.9 mph 6 mph 71% 0 in
06:34 66 °F 56.1 °F 30.1 in OSO 3 mph 5.9 mph 70.4% 0 in
06:39 66.4 °F 56.3 °F 30.1 in OSO 3.1 mph 6 mph 70% 0 in
06:44 66.4 °F 55.9 °F 30.1 in OSO 3.1 mph 5.2 mph 69.2% 0 in
06:49 66.6 °F 56.1 °F 30.1 in OSO 3.1 mph 6.2 mph 69% 0 in
06:54 66.6 °F 56.1 °F 30.1 in OSO 3.1 mph 6.2 mph 69% 0 in
06:59 66.7 °F 56.1 °F 30.1 in SO 3.1 mph 6 mph 69% 0 in
07:04 66.7 °F 56.1 °F 30.1 in Sur 3.5 mph 5.2 mph 69% 0 in
07:09 66.6 °F 56.1 °F 30.1 in Sur 3.6 mph 5.2 mph 69.3% 0 in
07:14 66 °F 56.1 °F 30.1 in SSO 3.6 mph 5.8 mph 70.5% 0 in
07:19 65.7 °F 56.3 °F 30.1 in OSO 3.6 mph 6 mph 71.3% 0 in
07:24 65.7 °F 56.5 °F 30.1 in SSO 3.6 mph 7.4 mph 72% 0 in
07:29 65.7 °F 56.3 °F 30.1 in SO 3.6 mph 7.4 mph 71.8% 0 in
07:34 65.7 °F 56.1 °F 30.1 in SO 4.2 mph 7 mph 71.4% 0 in
07:39 65.7 °F 56.3 °F 30.1 in SO 4.3 mph 6.9 mph 71.8% 0 in
07:44 65.7 °F 56.1 °F 30.1 in OSO 4.1 mph 7 mph 71% 0 in
07:49 65.8 °F 56.1 °F 30.1 in OSO 4 mph 6 mph 71% 0 in
07:54 66 °F 56.3 °F 30.1 in SO 4 mph 6.2 mph 71% 0 in
07:59 66 °F 56.3 °F 30.1 in SO 4 mph 6 mph 71% 0 in
08:04 66.2 °F 56.3 °F 30.1 in SO 4 mph 9.2 mph 70.4% 0 in
08:09 66.6 °F 56.5 °F 30.1 in SO 4 mph 9 mph 70% 0 in
08:14 66.6 °F 56.3 °F 30.1 in SO 4.5 mph 7 mph 69.7% 0 in
08:19 66.6 °F 56.5 °F 30.1 in SO 4.7 mph 5 mph 69.9% 0 in
08:24 66.7 °F 56.5 °F 30.1 in SO 2.7 mph 3 mph 70% 0 in
08:29 66.6 °F 56.5 °F 30.1 in OSO 2 mph 3.5 mph 70% 0 in
08:34 66.6 °F 56.7 °F 30.1 in SSO 1.6 mph 4.6 mph 70.5% 0 in
08:39 66.2 °F 56.5 °F 30.1 in SSE 1.4 mph 5.8 mph 71% 0 in
08:44 66 °F 56.3 °F 30.1 in SSE 3.1 mph 6 mph 71.2% 0 in
08:49 66 °F 56.7 °F 30.1 in SSE 3.6 mph 5 mph 71.8% 0 in
08:54 66 °F 56.7 °F 30.1 in SE 2.4 mph 5.9 mph 72% 0 in
08:59 65.8 °F 56.7 °F 30.1 in SE 2 mph 6.9 mph 72% 0 in
09:04 65.8 °F 56.7 °F 30.1 in SSE 3.3 mph 7 mph 72% 0 in
09:09 65.8 °F 56.7 °F 30.1 in SSE 3.6 mph 7 mph 72% 0 in
09:14 66 °F 56.7 °F 30.1 in Sur 4.4 mph 7.4 mph 72% 0 in
09:19 66.2 °F 56.8 °F 30.1 in Sur 4.7 mph 7 mph 72% 0 in
09:24 66.9 °F 57.2 °F 30.1 in Sur 4.4 mph 6.4 mph 71.2% 0 in
09:29 67.6 °F 57.4 °F 30.1 in Sur 4.3 mph 8.1 mph 69.6% 0 in
09:34 68.5 °F 57.6 °F 30.1 in Sur 4.6 mph 8.1 mph 67.7% 0 in
09:39 69.4 °F 57.4 °F 30.1 in Sur 4.7 mph 8.5 mph 65.5% 0 in
09:44 70.2 °F 57.7 °F 30.1 in Sur 5.6 mph 9 mph 64.7% 0 in
09:49 70.3 °F 57.7 °F 30.1 in Sur 5.9 mph 8 mph 64.3% 0 in
09:54 70.7 °F 58.1 °F 30.1 in SSE 5 mph 7 mph 64.3% 0 in
09:59 71.2 °F 58.1 °F 30.1 in SSE 4.7 mph 8.1 mph 63.1% 0 in
10:04 71.8 °F 58.3 °F 30.1 in SE 5.1 mph 8 mph 62.5% 0 in
10:09 72.1 °F 58.5 °F 30.1 in Sur 5.2 mph 6.2 mph 61.9% 0 in
10:14 72.7 °F 58.3 °F 30.1 in Sur 4 mph 7.4 mph 60.9% 0 in
10:19 72.9 °F 58.1 °F 30.1 in Sur 3.6 mph 7 mph 60% 0 in
10:24 73 °F 58.3 °F 30.1 in SSO 3.9 mph 6 mph 59.7% 0 in
10:29 73.4 °F 58.3 °F 30.1 in SO 4 mph 6 mph 59.1% 0 in
10:34 73.8 °F 58.5 °F 30.1 in SO 3.3 mph 5.9 mph 59% 0 in
10:39 73.9 °F 58.3 °F 30.1 in OSO 3.1 mph 6 mph 58.2% 0 in
10:44 74.3 °F 58.5 °F 30.1 in Oeste 3.1 mph 7.4 mph 58% 0 in
10:49 74.5 °F 58.6 °F 30.1 in OSO 3.1 mph 7 mph 57.9% 0 in
10:54 74.7 °F 58.6 °F 30.1 in OSO 3.8 mph 8.5 mph 57.3% 0 in
10:59 75 °F 58.8 °F 30.1 in OSO 4 mph 9 mph 57% 0 in
11:04 75.4 °F 58.6 °F 30.1 in OSO 4.6 mph 8.1 mph 56% 0 in
11:09 75.6 °F 58.6 °F 30.1 in OSO 4.7 mph 10 mph 55.8% 0 in
11:14 75.7 °F 58.5 °F 30.1 in OSO 5.7 mph 10.4 mph 55% 0 in
11:19 76.1 °F 58.6 °F 30.1 in SO 5.9 mph 10.4 mph 54.9% 0 in
11:24 76.5 °F 59 °F 30.1 in SO 5.5 mph 10 mph 55% 0 in
11:29 76.6 °F 59.2 °F 30.1 in OSO 5.4 mph 9.7 mph 54.7% 0 in
11:34 76.8 °F 59.4 °F 30.1 in OSO 5.4 mph 10.7 mph 55% 0 in
11:39 77 °F 59.5 °F 30.1 in ONO 5.4 mph 15.6 mph 54.7% 0 in
11:44 77.5 °F 59.5 °F 30.1 in Oeste 7.5 mph 16.1 mph 54% 0 in
11:49 77.5 °F 59.7 °F 30.1 in Oeste 8.1 mph 16 mph 54% 0 in
11:54 78.1 °F 60.1 °F 30.1 in ONO 7.7 mph 12 mph 54% 0 in
11:59 78.3 °F 59.9 °F 30.1 in OSO 7.6 mph 15 mph 53.2% 0 in
12:04 78.4 °F 59.7 °F 30.1 in Oeste 7 mph 15 mph 52.7% 0 in
12:09 78.4 °F 59.5 °F 30.1 in Oeste 6.9 mph 15 mph 52.1% 0 in
12:14 78.6 °F 59.9 °F 30.1 in OSO 7.8 mph 15 mph 52.8% 0 in
12:19 79 °F 59.9 °F 30.1 in OSO 8.1 mph 8.1 mph 52.1% 0 in
12:24 79.3 °F 59.7 °F 30.1 in Oeste 4.9 mph 8.5 mph 51.2% 0 in
12:29 79.7 °F 59.9 °F 30 in ONO 4 mph 11.8 mph 50.8% 0 in
12:34 80.1 °F 59.5 °F 30 in ONO 5.1 mph 13.5 mph 49.9% 0 in
12:39 80.1 °F 59.9 °F 30 in NO 5.4 mph 14 mph 50.3% 0 in
12:44 80.2 °F 59.9 °F 30 in NO 6.2 mph 14 mph 50% 0 in
12:49 80.1 °F 59.7 °F 30 in NO 6.4 mph 14 mph 50% 0 in
12:54 80.1 °F 59.7 °F 30 in ONO 7.2 mph 12.3 mph 50% 0 in
12:59 79.9 °F 59.4 °F 30 in ONO 7.4 mph 13 mph 49.4% 0 in
13:04 80.1 °F 59.2 °F 30 in Oeste 7 mph 13 mph 49% 0 in
13:09 80.2 °F 59 °F 30 in Oeste 6.9 mph 12 mph 48.4% 0 in
13:14 80.4 °F 59.2 °F 30 in ONO 6.9 mph 16.1 mph 48.4% 0 in
13:19 80.8 °F 59.4 °F 30 in NO 6.9 mph 16 mph 48.1% 0 in
13:24 81 °F 59 °F 30 in ONO 6.5 mph 13 mph 47.4% 0 in
13:29 81.1 °F 58.8 °F 30 in ONO 6.4 mph 13.8 mph 46.8% 0 in
13:34 81.1 °F 58.5 °F 30 in Oeste 7.1 mph 14 mph 46.2% 0 in
13:39 81.3 °F 59 °F 30 in ONO 7.4 mph 14 mph 46.7% 0 in
13:44 81.3 °F 58.6 °F 30 in Oeste 7 mph 14 mph 46.1% 0 in
13:49 81.1 °F 58.5 °F 30 in Oeste 6.9 mph 12.7 mph 46% 0 in
13:54 81.1 °F 58.5 °F 30 in Oeste 6.9 mph 13 mph 46.2% 0 in
13:59 81 °F 58.3 °F 30 in ONO 6.9 mph 7 mph 46% 0 in
14:04 81 °F 58.1 °F 30 in Oeste 4.3 mph 9.7 mph 45.8% 0 in
14:09 81 °F 57.9 °F 30 in OSO 3.6 mph 10 mph 45.5% 0 in
14:14 81.3 °F 58.1 °F 30 in Oeste 5.3 mph 13 mph 45.2% 0 in
14:19 81.7 °F 58.3 °F 30 in Oeste 5.9 mph 13 mph 45.1% 0 in
14:24 81.9 °F 57.9 °F 30 in Oeste 6.3 mph 13 mph 44.2% 0 in
14:29 81.9 °F 57.9 °F 30 in Oeste 6.4 mph 12.5 mph 44.1% 0 in
14:34 82 °F 57.9 °F 30 in Oeste 6.4 mph 16.1 mph 44% 0 in
14:39 82 °F 57.9 °F 30 in OSO 6.4 mph 16.1 mph 44% 0 in
14:44 82 °F 57.7 °F 30 in OSO 7.3 mph 15 mph 43.6% 0 in
14:49 82 °F 57.2 °F 30 in Oeste 7.6 mph 16.1 mph 42.8% 0 in
14:54 82 °F 57 °F 30 in Oeste 8 mph 16 mph 42.4% 0 in
14:59 82 °F 57.4 °F 30 in OSO 8.1 mph 14 mph 42.9% 0 in
15:04 82.2 °F 57.4 °F 30 in Oeste 6.7 mph 17.5 mph 42.8% 0 in
15:09 82 °F 56.8 °F 30 in Oeste 6.4 mph 17.3 mph 42% 0 in
15:14 82 °F 56.8 °F 30 in Oeste 8 mph 17 mph 42.3% 0 in
15:19 82 °F 57.4 °F 30 in Oeste 8.5 mph 14.7 mph 43% 0 in
15:24 81.9 °F 56.7 °F 30 in Oeste 7.3 mph 15 mph 42.2% 0 in
15:29 81.9 °F 57 °F 30 in OSO 6.9 mph 15 mph 42.7% 0 in
15:34 81.7 °F 57 °F 30 in OSO 7.8 mph 15 mph 43% 0 in
15:39 81.7 °F 57 °F 30 in OSO 8.1 mph 13 mph 43% 0 in
15:44 81.7 °F 57.2 °F 30 in OSO 6.4 mph 13 mph 43.3% 0 in
15:49 81.7 °F 57.6 °F 30 in SO 5.9 mph 13 mph 43.8% 0 in
15:54 81.7 °F 57 °F 30 in OSO 7.1 mph 15 mph 43% 0 in
15:59 81.5 °F 56.8 °F 30 in OSO 7.4 mph 15 mph 43% 0 in
16:04 81.5 °F 56.8 °F 30 in SO 8.3 mph 14 mph 43% 0 in
16:09 81.5 °F 56.8 °F 30 in OSO 8.5 mph 15 mph 43% 0 in
16:14 81.5 °F 57.4 °F 30 in OSO 7.6 mph 15 mph 43.9% 0 in
16:19 81.7 °F 57.6 °F 30 in OSO 7.4 mph 11 mph 44% 0 in
16:24 81.9 °F 57.6 °F 30 in OSO 5 mph 11.5 mph 43.7% 0 in
16:29 81.9 °F 57.6 °F 30 in OSO 4.3 mph 12 mph 43.5% 0 in
16:34 81.9 °F 57.2 °F 30 in OSO 6.3 mph 14 mph 43.1% 0 in
16:39 82 °F 57.2 °F 30 in OSO 6.9 mph 14 mph 43% 0 in
16:44 82 °F 57.6 °F 30 in OSO 6.3 mph 11 mph 43.4% 0 in
16:49 82 °F 57.7 °F 30 in OSO 6.2 mph 11.5 mph 43.6% 0 in
16:54 81.9 °F 57.2 °F 30 in OSO 6 mph 12 mph 43% 0 in
16:59 81.9 °F 57.2 °F 30 in OSO 5.9 mph 12 mph 43% 0 in
17:04 81.9 °F 57.4 °F 30 in OSO 6.7 mph 11.5 mph 43.4% 0 in
17:09 81.7 °F 57.4 °F 30 in Oeste 6.9 mph 12 mph 43.8% 0 in
17:14 81.3 °F 57.4 °F 30 in Oeste 6.2 mph 12.7 mph 44% 0 in
17:19 81.3 °F 57.2 °F 30 in Oeste 5.9 mph 13 mph 43.9% 0 in
17:24 81.1 °F 57.2 °F 30 in Oeste 6.3 mph 13 mph 44% 0 in
17:29 81.1 °F 57.2 °F 30 in Oeste 6.4 mph 13 mph 44% 0 in
17:34 81 °F 56.7 °F 30 in ONO 6 mph 13 mph 43.2% 0 in
17:39 81 °F 56.8 °F 30 in Oeste 5.9 mph 13 mph 43.9% 0 in
17:44 80.8 °F 56.7 °F 30 in Oeste 7.1 mph 12.7 mph 43.9% 0 in
17:49 80.4 °F 56.5 °F 30 in Oeste 7.4 mph 16.1 mph 43.8% 0 in
17:54 80.2 °F 56.5 °F 30 in Oeste 8.3 mph 16 mph 44% 0 in
17:59 80.1 °F 56.3 °F 30 in Oeste 8.5 mph 15 mph 44% 0 in
18:04 80.1 °F 56.3 °F 30 in Oeste 6.8 mph 13 mph 44.3% 0 in
18:09 79.7 °F 56.5 °F 30 in OSO 6.4 mph 9.2 mph 45% 0 in
18:14 79.5 °F 56.3 °F 30 in OSO 5.1 mph 9.2 mph 45.2% 0 in
18:19 79.3 °F 56.8 °F 30 in Oeste 4.7 mph 8.1 mph 46% 0 in
18:24 79.2 °F 56.7 °F 30 in Oeste 4.4 mph 12.7 mph 46% 0 in
18:29 79.2 °F 56.7 °F 30 in Oeste 4.3 mph 13 mph 46% 0 in
18:34 79 °F 56.5 °F 30 in Oeste 6.3 mph 13.8 mph 46% 0 in
18:39 79 °F 56.5 °F 30 in Oeste 6.9 mph 14 mph 46% 0 in
18:44 79 °F 56.5 °F 30 in Oeste 6.5 mph 12 mph 46% 0 in
18:49 78.8 °F 56.3 °F 30 in OSO 6.4 mph 10 mph 46% 0 in
18:54 78.6 °F 56.1 °F 30 in Oeste 5.1 mph 9 mph 46% 0 in
18:59 78.4 °F 56.5 °F 30 in Oeste 4.7 mph 9.7 mph 46.8% 0 in
19:04 78.4 °F 56.5 °F 30 in Oeste 5.1 mph 10 mph 47% 0 in
19:09 78.4 °F 56.5 °F 30 in Oeste 5.2 mph 9.2 mph 47% 0 in
19:14 78.3 °F 57 °F 30 in SO 5.2 mph 9.2 mph 48% 0 in
19:19 77.7 °F 58.1 °F 30 in Sur 5.2 mph 9.2 mph 50.8% 0 in
19:24 77.4 °F 58.6 °F 30 in SO 5.3 mph 9.2 mph 52.6% 0 in
19:29 77 °F 58.8 °F 30 in SO 5.4 mph 9 mph 53.4% 0 in
19:34 76.8 °F 58.5 °F 30 in SO 4.5 mph 9.2 mph 53.3% 0 in
19:39 76.8 °F 58.5 °F 30 in OSO 4.3 mph 9 mph 53.2% 0 in
19:44 76.6 °F 58.6 °F 30 in SSO 4.1 mph 7.4 mph 53.7% 0 in
19:49 76.5 °F 59.4 °F 30 in Sur 4 mph 9.2 mph 55.3% 0 in
19:54 76.3 °F 59.9 °F 30 in SSO 5.1 mph 9 mph 56.8% 0 in
19:59 75.9 °F 59.7 °F 30 in SSO 5.4 mph 9.7 mph 57% 0 in
20:04 75.7 °F 59.4 °F 30 in SO 4.8 mph 10 mph 57% 0 in
20:09 75.7 °F 59.4 °F 30 in SO 4.7 mph 6.4 mph 57% 0 in
20:14 75.6 °F 59.4 °F 30 in SO 4.2 mph 8.1 mph 57% 0 in
20:19 75.6 °F 59.2 °F 30 in SO 4 mph 8 mph 56.6% 0 in
20:24 75.6 °F 58.8 °F 30 in SO 4.5 mph 8.1 mph 56% 0 in
20:29 75.6 °F 58.8 °F 30 in SSO 4.7 mph 9 mph 56% 0 in
20:34 75.6 °F 58.3 °F 30 in SO 5.1 mph 9 mph 55% 0 in
20:39 75.6 °F 58.3 °F 30 in SO 5.2 mph 7.4 mph 55% 0 in
20:44 75.6 °F 58.6 °F 30 in SSO 4.3 mph 7 mph 55.8% 0 in
20:49 75.6 °F 58.8 °F 30 in SSO 4 mph 6 mph 56% 0 in
20:54 75.6 °F 59.2 °F 30 in SO 4 mph 6.9 mph 56.8% 0 in
20:59 75.6 °F 59.4 °F 30 in SSO 4 mph 7 mph 57.4% 0 in
21:04 75.4 °F 59.5 °F 30 in SO 3.3 mph 5.2 mph 58% 0 in
21:09 75.2 °F 59.9 °F 30 in SO 3.1 mph 5.2 mph 59% 0 in
21:14 74.8 °F 60.1 °F 30 in SO 3.1 mph 6.2 mph 59.8% 0 in
21:19 74.7 °F 60.3 °F 30 in SO 3.1 mph 6 mph 60.9% 0 in
21:24 74.5 °F 60.1 °F 30 in OSO 3.5 mph 6 mph 61.1% 0 in
21:29 73.9 °F 60.3 °F 30 in OSO 3.6 mph 6 mph 62.3% 0 in
21:34 73.8 °F 60.6 °F 30 in OSO 2.7 mph 4 mph 63.6% 0 in
21:39 73.4 °F 60.8 °F 30 in Oeste 2.4 mph 4 mph 64.8% 0 in
21:44 73.2 °F 61 °F 30 in Oeste 1.9 mph 4 mph 65.6% 0 in
21:49 73 °F 61 °F 30 in Sur 1.8 mph 4.6 mph 66% 0 in
21:54 72.9 °F 61 °F 30 in SSE 1.8 mph 5 mph 66.4% 0 in
21:59 72.7 °F 61 °F 30 in Sur 1.8 mph 5.2 mph 66.7% 0 in
22:04 72.5 °F 61.2 °F 30 in ONO 2.7 mph 6.2 mph 67.4% 0 in
22:09 72.1 °F 61.3 °F 30 in Oeste 2.9 mph 6 mph 68.7% 0 in
22:14 72 °F 61.3 °F 30 in ONO 3.7 mph 6.2 mph 69.4% 0 in
22:19 71.6 °F 61.2 °F 30 in ONO 4 mph 6.9 mph 70% 0 in
22:24 71.4 °F 61.3 °F 30 in Oeste 4 mph 7 mph 70.7% 0 in
22:29 71.2 °F 61.3 °F 30 in OSO 4 mph 7 mph 71% 0 in
22:34 71.1 °F 61.2 °F 30 in OSO 3.3 mph 6 mph 71% 0 in
22:39 70.9 °F 61 °F 30 in Oeste 3.1 mph 6 mph 71% 0 in
22:44 70.9 °F 61.3 °F 30 in ONO 2.9 mph 8.1 mph 71.9% 0 in
22:49 70.7 °F 61.2 °F 30 in Oeste 2.9 mph 8 mph 72% 0 in
22:54 70.7 °F 61 °F 30 in OSO 3.7 mph 6 mph 71.8% 0 in
22:59 70.7 °F 60.8 °F 30 in OSO 4 mph 5 mph 71.1% 0 in
23:04 70.5 °F 60.6 °F 30 in SSO 3.1 mph 5 mph 71% 0 in
23:09 70.7 °F 60.6 °F 30 in Sur 2.9 mph 5.8 mph 70.7% 0 in
23:14 71.1 °F 60.4 °F 30 in SSE 3.4 mph 6.9 mph 69.3% 0 in
23:19 71.2 °F 60.3 °F 30 in SSE 3.6 mph 7 mph 68.3% 0 in
23:24 71.4 °F 60.3 °F 30 in SSE 4.8 mph 7 mph 68% 0 in
23:29 71.2 °F 60.3 °F 29.9 in Sur 5.2 mph 6 mph 68% 0 in
23:34 71.2 °F 59.9 °F 29.9 in SSO 4.3 mph 6 mph 67.3% 0 in
23:39 71.2 °F 59.7 °F 29.9 in SO 4 mph 5.4 mph 67% 0 in
23:44 71.2 °F 59.7 °F 29.9 in SSO 3.3 mph 7.4 mph 66.9% 0 in
23:49 71.2 °F 59.4 °F 29.9 in SSO 3.1 mph 7 mph 66.1% 0 in
23:54 71.2 °F 59.2 °F 29.9 in SSO 4 mph 6 mph 66% 0 in
23:59 71.1 °F 59.2 °F 29.9 in SO 4.3 mph 6.9 mph 66% 0 in
Murcia-Puente Tocinos, España
Compliments of Weather Underground - 3.5 mb

La estación de MeteoMurcia.com, publica sus datos en los siguientes proyectos:

Weather Underground PWS IMURCIAP2 Meteoclimatic www.awekas.at

W3Counter
Web Analytics